Time;durP1;ratioP1;P1;durP2;ratioP2;P2;SDS_P1;SDS_P2;PMS_P1;PMS_P2;Temp;Humidity;BMP_temperature;BMP_pressure;BME280_temperature;BME280_humidity;BME280_pressure;Samples;Min_cycle;Max_cycle;Signal;HPM_P1;HPM_P2
2022/01/30 00:00:26;;;;;;;24.33;4.28;;;;;;;;;;5114685;28;20084;-72
2022/01/30 00:02:53;;;;;;;31.77;5.15;;;;;;;;;;5113548;27;20063;-72
2022/01/30 00:05:19;;;;;;;20.75;3.90;;;;;;;;;;5113867;28;20499;-71
2022/01/30 00:07:45;;;;;;;36.38;5.22;;;;;;;;;;5112812;27;20055;-71
2022/01/30 00:10:15;;;;;;;18.27;3.50;;;;;;;;;;5113126;27;20110;-70
2022/01/30 00:15:18;;;;;;;26.42;5.43;;;;;;;;;;5114573;27;20083;-71
2022/01/30 00:18:04;;;;;;;25.40;4.55;;;;;;;;;;5114264;27;20528;-73
2022/01/30 00:20:33;;;;;;;20.50;5.07;;;;;;;;;;5113839;27;20605;-70
2022/01/30 00:23:11;;;;;;;26.65;4.45;;;;;;;;;;5115975;27;20055;-71
2022/01/30 00:25:50;;;;;;;30.85;5.35;;;;;;;;;;5103322;28;20145;-72
2022/01/30 00:28:19;;;;;;;31.58;5.95;;;;;;;;;;5110650;28;20056;-70
2022/01/30 00:30:45;;;;;;;22.42;4.03;;;;;;;;;;5113214;27;20101;-71
2022/01/30 00:33:12;;;;;;;24.55;4.60;;;;;;;;;;5113345;27;20196;-70
2022/01/30 00:35:39;;;;;;;26.23;4.55;;;;;;;;;;5113905;27;20048;-72
2022/01/30 00:38:10;;;;;;;16.50;4.15;;;;;;;;;;5113524;27;20059;-70
2022/01/30 00:40:37;;;;;;;24.92;3.80;;;;;;;;;;5111716;27;20055;-72
2022/01/30 00:43:04;;;;;;;16.80;4.53;;;;;;;;;;5109431;27;20063;-71
2022/01/30 00:45:31;;;;;;;16.83;3.55;;;;;;;;;;5113237;28;20121;-71
2022/01/30 00:47:58;;;;;;;19.80;3.60;;;;;;;;;;5113405;27;20051;-70
2022/01/30 00:50:24;;;;;;;22.35;4.03;;;;;;;;;;5113667;27;20048;-73
2022/01/30 00:52:53;;;;;;;23.80;3.97;;;;;;;;;;5112790;28;20044;-71
2022/01/30 00:55:21;;;;;;;17.58;4.00;;;;;;;;;;5113097;27;20547;-72
2022/01/30 00:57:47;;;;;;;25.65;4.18;;;;;;;;;;5113387;27;20078;-71
2022/01/30 01:00:15;;;;;;;29.15;4.45;;;;;;;;;;5113065;28;20075;-73
2022/01/30 01:02:42;;;;;;;21.73;4.45;;;;;;;;;;5113398;27;20483;-71
2022/01/30 01:05:08;;;;;;;25.40;5.38;;;;;;;;;;5112843;27;20554;-72
2022/01/30 01:07:37;;;;;;;26.30;3.92;;;;;;;;;;5112464;27;20059;-71
2022/01/30 01:10:12;;;;;;;24.60;5.78;;;;;;;;;;5112844;27;20149;-71
2022/01/30 01:13:08;;;;;;;20.87;4.33;;;;;;;;;;5108407;28;20056;-71
2022/01/30 01:23:52;;;;;;;18.67;3.45;;;;;;;;;;5109015;28;20163;-70
2022/01/30 01:26:20;;;;;;;16.77;3.72;;;;;;;;;;5108583;27;20075;-72
2022/01/30 01:28:47;;;;;;;20.35;4.00;;;;;;;;;;5107354;28;20073;-71
2022/01/30 01:31:14;;;;;;;21.15;3.67;;;;;;;;;;5107209;27;20054;-72
2022/01/30 01:33:59;;;;;;;18.00;3.13;;;;;;;;;;5108818;27;20048;-69
2022/01/30 01:36:26;;;;;;;16.48;3.55;;;;;;;;;;5109817;27;20060;-70
2022/01/30 01:38:52;;;;;;;14.20;3.53;;;;;;;;;;5107817;28;20143;-72
2022/01/30 01:41:21;;;;;;;15.10;3.42;;;;;;;;;;5109815;27;20082;-70
2022/01/30 01:43:49;;;;;;;23.70;3.72;;;;;;;;;;5109956;28;20056;-70
2022/01/30 01:46:20;;;;;;;18.10;4.72;;;;;;;;;;5111503;27;20075;-70
2022/01/30 01:48:50;;;;;;;22.48;4.03;;;;;;;;;;5112996;27;20059;-69
2022/01/30 01:51:19;;;;;;;21.27;5.47;;;;;;;;;;5116740;27;20461;-71
2022/01/30 01:53:47;;;;;;;17.98;3.95;;;;;;;;;;5116170;27;20048;-71
2022/01/30 01:56:15;;;;;;;24.30;4.75;;;;;;;;;;5113253;28;20604;-71
2022/01/30 01:58:41;;;;;;;18.40;4.70;;;;;;;;;;5112562;28;20048;-71
2022/01/30 02:01:08;;;;;;;21.85;4.03;;;;;;;;;;5113952;27;20052;-71
2022/01/30 02:03:36;;;;;;;22.15;3.70;;;;;;;;;;5114522;27;20048;-70
2022/01/30 02:06:04;;;;;;;22.48;3.78;;;;;;;;;;5116503;27;20056;-70
2022/01/30 02:08:35;;;;;;;22.48;4.05;;;;;;;;;;5116278;27;20052;-71
2022/01/30 02:11:08;;;;;;;18.23;4.25;;;;;;;;;;5115816;27;20091;-70
2022/01/30 02:27:26;;;;;;;19.63;3.53;;;;;;;;;;5116221;27;20053;-71
2022/01/30 02:29:53;;;;;;;23.50;4.43;;;;;;;;;;5115014;28;20382;-71
2022/01/30 02:32:19;;;;;;;20.58;3.28;;;;;;;;;;5114462;28;20525;-71
2022/01/30 02:34:46;;;;;;;21.92;3.60;;;;;;;;;;5115660;27;20055;-71
2022/01/30 02:37:14;;;;;;;14.20;3.00;;;;;;;;;;5114855;27;20056;-71
2022/01/30 02:39:40;;;;;;;18.75;2.72;;;;;;;;;;5115712;27;20123;-73
2022/01/30 02:42:07;;;;;;;21.17;3.10;;;;;;;;;;5114493;28;20106;-72
2022/01/30 02:44:42;;;;;;;11.88;2.38;;;;;;;;;;5115895;28;20094;-74
2022/01/30 02:47:21;;;;;;;10.15;2.28;;;;;;;;;;5115656;27;20480;-72
2022/01/30 02:52:35;;;;;;;15.00;2.38;;;;;;;;;;5111991;27;20079;-71
2022/01/30 02:55:01;;;;;;;13.02;1.70;;;;;;;;;;5115490;27;20130;-72
2022/01/30 02:57:28;;;;;;;19.48;3.03;;;;;;;;;;5115436;27;20058;-71
2022/01/30 02:59:55;;;;;;;14.00;2.28;;;;;;;;;;5115486;27;20079;-73
2022/01/30 03:02:22;;;;;;;12.90;2.40;;;;;;;;;;5115738;27;20151;-71
2022/01/30 03:04:48;;;;;;;13.38;2.55;;;;;;;;;;5114565;27;20463;-71
2022/01/30 03:07:15;;;;;;;20.98;3.17;;;;;;;;;;5114834;27;20481;-71
2022/01/30 03:09:41;;;;;;;13.25;2.85;;;;;;;;;;5113471;27;20471;-71
2022/01/30 03:12:08;;;;;;;12.48;3.55;;;;;;;;;;5114934;27;20139;-72
2022/01/30 03:14:34;;;;;;;21.63;3.75;;;;;;;;;;5114066;27;20549;-71
2022/01/30 03:17:00;;;;;;;16.00;2.03;;;;;;;;;;5113950;28;20086;-71
2022/01/30 03:19:27;;;;;;;22.58;3.33;;;;;;;;;;5114276;27;20548;-71
2022/01/30 03:21:53;;;;;;;15.30;3.72;;;;;;;;;;5114652;27;20153;-71
2022/01/30 03:24:20;;;;;;;14.15;2.97;;;;;;;;;;5114601;27;20143;-71
2022/01/30 03:26:46;;;;;;;26.33;3.20;;;;;;;;;;5114352;27;20075;-70
2022/01/30 03:29:12;;;;;;;15.05;2.83;;;;;;;;;;5114696;27;20078;-71
2022/01/30 03:31:40;;;;;;;17.55;3.58;;;;;;;;;;5112608;28;20139;-70
2022/01/30 03:34:08;;;;;;;13.70;2.22;;;;;;;;;;5116814;27;20148;-70
2022/01/30 03:36:35;;;;;;;15.27;2.33;;;;;;;;;;5114757;27;20064;-70
2022/01/30 03:39:03;;;;;;;13.70;2.35;;;;;;;;;;5113801;27;20091;-71
2022/01/30 03:41:29;;;;;;;17.77;2.58;;;;;;;;;;5114447;27;20060;-70
2022/01/30 03:43:55;;;;;;;17.92;3.13;;;;;;;;;;5114845;27;20079;-71
2022/01/30 03:46:23;;;;;;;13.95;2.75;;;;;;;;;;5101428;27;20059;-70
2022/01/30 03:49:09;;;;;;;14.73;2.95;;;;;;;;;;5114951;27;20055;-71
2022/01/30 03:51:35;;;;;;;14.02;2.55;;;;;;;;;;5114312;27;20087;-71
2022/01/30 03:54:02;;;;;;;16.35;2.80;;;;;;;;;;5113577;28;20101;-70
2022/01/30 03:56:28;;;;;;;20.10;2.90;;;;;;;;;;5114225;28;20054;-70
2022/01/30 03:58:54;;;;;;;15.77;3.30;;;;;;;;;;5114281;27;20578;-71
2022/01/30 04:01:21;;;;;;;15.77;2.80;;;;;;;;;;5113237;28;20519;-70
2022/01/30 04:03:47;;;;;;;21.92;4.13;;;;;;;;;;5114646;28;20059;-70
2022/01/30 04:06:14;;;;;;;15.57;2.72;;;;;;;;;;5113291;28;20090;-70
2022/01/30 04:08:40;;;;;;;14.38;2.80;;;;;;;;;;5114059;27;20071;-71
2022/01/30 04:11:07;;;;;;;15.00;2.42;;;;;;;;;;5114134;28;20059;-71
2022/01/30 04:13:33;;;;;;;17.27;3.08;;;;;;;;;;5114559;28;20058;-70
2022/01/30 04:16:00;;;;;;;10.75;2.70;;;;;;;;;;5113518;27;20044;-72
2022/01/30 04:18:26;;;;;;;16.33;2.95;;;;;;;;;;5114628;27;20056;-70
2022/01/30 04:20:53;;;;;;;13.52;3.78;;;;;;;;;;5113026;27;20064;-71
2022/01/30 04:23:19;;;;;;;13.50;2.78;;;;;;;;;;5113384;28;20090;-70
2022/01/30 04:25:45;;;;;;;17.75;4.53;;;;;;;;;;5111795;27;20473;-71
2022/01/30 04:28:12;;;;;;;18.33;3.05;;;;;;;;;;5113541;28;20052;-71
2022/01/30 04:30:40;;;;;;;16.92;3.05;;;;;;;;;;5113243;27;20052;-70
2022/01/30 04:33:06;;;;;;;10.13;2.08;;;;;;;;;;5113887;27;20150;-70
2022/01/30 04:35:33;;;;;;;17.33;2.47;;;;;;;;;;5112352;27;20058;-70
2022/01/30 04:55:18;;;;;;;19.13;3.22;;;;;;;;;;5103099;28;20053;-70
2022/01/30 05:08:05;;;;;;;20.30;3.00;;;;;;;;;;5111938;27;20139;-70
2022/01/30 05:10:31;;;;;;;11.90;2.20;;;;;;;;;;5110626;27;20071;-70
2022/01/30 05:12:59;;;;;;;27.48;3.95;;;;;;;;;;5112877;28;20139;-70
2022/01/30 05:15:28;;;;;;;16.20;2.75;;;;;;;;;;5104233;28;20140;-71
2022/01/30 05:17:54;;;;;;;12.07;2.88;;;;;;;;;;5111728;27;20441;-69
2022/01/30 05:20:21;;;;;;;26.20;4.00;;;;;;;;;;5112244;27;20056;-70
2022/01/30 05:22:47;;;;;;;21.02;2.95;;;;;;;;;;5112810;27;20082;-69
2022/01/30 05:25:15;;;;;;;14.02;2.88;;;;;;;;;;5103687;28;20052;-70
2022/01/30 05:27:41;;;;;;;15.32;3.38;;;;;;;;;;5113508;28;20052;-71
2022/01/30 05:30:08;;;;;;;17.67;3.30;;;;;;;;;;5112487;27;20098;-70
2022/01/30 05:32:34;;;;;;;19.67;3.50;;;;;;;;;;5123020;27;20058;-71
2022/01/30 05:35:01;;;;;;;24.75;4.15;;;;;;;;;;5112838;28;20119;-70
2022/01/30 05:37:27;;;;;;;15.40;3.90;;;;;;;;;;5112821;28;20079;-71
2022/01/30 05:39:54;;;;;;;15.60;2.80;;;;;;;;;;5127590;27;20056;-71
2022/01/30 05:42:20;;;;;;;18.83;4.05;;;;;;;;;;5112566;27;20139;-71
2022/01/30 05:44:59;;;;;;;20.08;3.72;;;;;;;;;;5112567;27;20086;-70
2022/01/30 05:47:32;;;;;;;26.30;3.83;;;;;;;;;;5106347;27;20052;-70
2022/01/30 05:49:58;;;;;;;19.60;4.22;;;;;;;;;;5104374;27;20139;-70
2022/01/30 05:52:24;;;;;;;12.68;2.92;;;;;;;;;;5099946;28;20074;-71
2022/01/30 05:54:51;;;;;;;22.67;3.72;;;;;;;;;;5102603;28;20069;-71
2022/01/30 05:57:18;;;;;;;21.67;3.50;;;;;;;;;;5099137;28;20555;-71
2022/01/30 05:59:44;;;;;;;17.95;3.15;;;;;;;;;;5092784;28;20048;-71
2022/01/30 06:02:10;;;;;;;21.13;3.35;;;;;;;;;;5093004;28;20062;-71
2022/01/30 06:04:37;;;;;;;23.10;3.83;;;;;;;;;;5106202;27;20052;-71
2022/01/30 06:07:03;;;;;;;15.07;2.83;;;;;;;;;;5092937;28;20507;-70
2022/01/30 06:09:30;;;;;;;21.48;3.55;;;;;;;;;;5107214;27;20059;-70
2022/01/30 06:11:57;;;;;;;26.60;4.88;;;;;;;;;;5108702;28;20083;-70
2022/01/30 06:14:24;;;;;;;27.55;4.75;;;;;;;;;;5110715;27;20047;-71
2022/01/30 06:16:50;;;;;;;28.98;4.10;;;;;;;;;;5111221;27;20501;-69
2022/01/30 06:19:22;;;;;;;28.65;4.70;;;;;;;;;;5103855;27;20098;-70
2022/01/30 06:21:49;;;;;;;21.17;4.00;;;;;;;;;;5108960;27;20147;-70
2022/01/30 06:24:15;;;;;;;22.38;4.15;;;;;;;;;;5114603;27;20090;-70
2022/01/30 06:26:41;;;;;;;21.75;3.80;;;;;;;;;;5115048;27;20048;-71
2022/01/30 06:29:07;;;;;;;22.83;4.15;;;;;;;;;;5115559;28;20056;-70
2022/01/30 06:31:34;;;;;;;22.48;4.35;;;;;;;;;;5116573;27;20067;-71
2022/01/30 06:34:00;;;;;;;16.05;3.22;;;;;;;;;;5114032;27;20052;-71
2022/01/30 06:36:26;;;;;;;17.50;3.15;;;;;;;;;;5114663;27;20052;-71
2022/01/30 06:38:53;;;;;;;21.27;3.72;;;;;;;;;;5115919;28;20058;-71
2022/01/30 06:41:20;;;;;;;20.65;3.75;;;;;;;;;;5101884;27;20457;-71
2022/01/30 06:43:46;;;;;;;23.05;3.60;;;;;;;;;;5113030;28;20056;-70
2022/01/30 06:46:15;;;;;;;23.10;3.75;;;;;;;;;;5103194;27;20080;-70
2022/01/30 06:48:41;;;;;;;20.90;4.18;;;;;;;;;;5095354;28;20057;-70
2022/01/30 06:51:08;;;;;;;24.77;3.55;;;;;;;;;;5106664;28;20122;-70
2022/01/30 06:53:34;;;;;;;23.90;5.18;;;;;;;;;;5115211;28;20056;-70
2022/01/30 06:56:01;;;;;;;26.55;4.07;;;;;;;;;;5103576;28;20117;-70
2022/01/30 06:58:27;;;;;;;27.50;4.82;;;;;;;;;;5101380;27;20576;-71
2022/01/30 07:00:53;;;;;;;25.20;4.18;;;;;;;;;;5094542;28;20057;-70
2022/01/30 07:03:20;;;;;;;20.45;4.43;;;;;;;;;;5095194;28;20083;-70
2022/01/30 07:05:46;;;;;;;27.75;4.82;;;;;;;;;;5107755;27;20059;-70
2022/01/30 07:08:13;;;;;;;26.00;3.95;;;;;;;;;;5112630;27;20077;-70
2022/01/30 07:10:40;;;;;;;23.52;3.50;;;;;;;;;;5095838;28;20059;-70
2022/01/30 07:13:07;;;;;;;24.55;4.38;;;;;;;;;;5096094;28;20524;-71
2022/01/30 07:15:34;;;;;;;28.35;4.97;;;;;;;;;;5111166;27;20175;-70
2022/01/30 07:18:00;;;;;;;31.48;3.88;;;;;;;;;;5095107;28;20052;-70
2022/01/30 07:20:27;;;;;;;33.08;5.28;;;;;;;;;;5108318;27;20572;-70
2022/01/30 07:22:53;;;;;;;32.63;4.78;;;;;;;;;;5096086;27;20049;-69
2022/01/30 07:25:20;;;;;;;27.60;4.68;;;;;;;;;;5103757;27;20065;-71
2022/01/30 07:27:46;;;;;;;18.35;3.50;;;;;;;;;;5095781;28;20445;-70
2022/01/30 07:30:14;;;;;;;27.17;4.68;;;;;;;;;;5109587;27;20052;-70
2022/01/30 07:32:40;;;;;;;23.38;5.05;;;;;;;;;;5097145;28;20483;-71
2022/01/30 07:35:07;;;;;;;25.13;4.55;;;;;;;;;;5096307;28;20052;-70
2022/01/30 07:37:34;;;;;;;25.67;3.63;;;;;;;;;;5105859;27;20048;-70
2022/01/30 07:40:02;;;;;;;31.63;7.20;;;;;;;;;;5102290;27;20052;-71
2022/01/30 07:42:28;;;;;;;24.90;4.78;;;;;;;;;;5094723;28;20127;-70
2022/01/30 07:44:55;;;;;;;30.20;5.57;;;;;;;;;;5110670;27;20485;-70
2022/01/30 07:47:22;;;;;;;21.67;3.97;;;;;;;;;;5102234;27;20479;-69
2022/01/30 07:49:51;;;;;;;22.30;5.22;;;;;;;;;;5099599;28;20147;-70
2022/01/30 07:52:19;;;;;;;20.48;3.97;;;;;;;;;;5094296;28;20060;-70
2022/01/30 07:54:45;;;;;;;27.70;5.80;;;;;;;;;;5094395;28;20083;-71
2022/01/30 07:57:12;;;;;;;33.83;4.45;;;;;;;;;;5092615;28;20068;-70
2022/01/30 07:59:38;;;;;;;25.40;4.15;;;;;;;;;;5105096;28;20082;-70
2022/01/30 08:02:04;;;;;;;31.88;4.40;;;;;;;;;;5106322;28;20086;-70
2022/01/30 08:04:31;;;;;;;23.63;4.68;;;;;;;;;;5012926;28;20049;-72
2022/01/30 08:06:57;;;;;;;26.38;4.85;;;;;;;;;;5054100;28;20560;-71
2022/01/30 08:09:25;;;;;;;29.80;4.30;;;;;;;;;;5053749;28;20577;-71
2022/01/30 08:11:51;;;;;;;22.15;5.55;;;;;;;;;;5071241;28;20227;-71
2022/01/30 08:14:17;;;;;;;22.58;3.80;;;;;;;;;;5072234;28;20048;-72
2022/01/30 08:16:44;;;;;;;22.23;3.70;;;;;;;;;;5058928;28;20049;-69
2022/01/30 08:19:10;;;;;;;27.95;5.28;;;;;;;;;;5054995;28;20568;-70
2022/01/30 08:21:36;;;;;;;36.67;5.13;;;;;;;;;;5068029;28;20433;-71
2022/01/30 08:24:03;;;;;;;33.47;5.03;;;;;;;;;;5058136;28;20053;-71
2022/01/30 08:26:29;;;;;;;32.72;6.80;;;;;;;;;;5056977;28;20136;-70
2022/01/30 08:29:01;;;;;;;23.50;4.93;;;;;;;;;;5068101;28;20068;-70
2022/01/30 08:31:31;;;;;;;22.08;3.92;;;;;;;;;;5071612;28;20053;-71
2022/01/30 08:33:58;;;;;;;33.40;6.40;;;;;;;;;;5070266;28;20143;-71
2022/01/30 08:36:24;;;;;;;25.13;3.88;;;;;;;;;;5071812;28;20099;-71
2022/01/30 08:38:51;;;;;;;22.42;4.55;;;;;;;;;;5069940;28;20053;-70
2022/01/30 08:41:17;;;;;;;26.85;5.22;;;;;;;;;;5072433;28;20080;-70
2022/01/30 08:43:43;;;;;;;27.15;4.60;;;;;;;;;;5073228;28;20061;-71
2022/01/30 08:46:10;;;;;;;23.08;4.65;;;;;;;;;;5071327;28;20048;-71
2022/01/30 08:48:36;;;;;;;25.30;4.00;;;;;;;;;;5073117;28;20049;-70
2022/01/30 08:51:02;;;;;;;30.02;4.80;;;;;;;;;;5072712;28;20490;-70
2022/01/30 08:53:29;;;;;;;29.65;5.05;;;;;;;;;;5071875;28;20061;-71
2022/01/30 08:55:55;;;;;;;32.03;4.10;;;;;;;;;;5072117;28;20132;-70
2022/01/30 08:58:22;;;;;;;32.15;5.53;;;;;;;;;;5073150;28;20142;-71
2022/01/30 09:00:48;;;;;;;40.72;5.30;;;;;;;;;;5072689;28;20052;-69
2022/01/30 09:03:14;;;;;;;27.33;5.32;;;;;;;;;;5072632;28;20517;-70
2022/01/30 09:05:41;;;;;;;21.63;4.45;;;;;;;;;;5072698;28;20494;-70
2022/01/30 09:08:08;;;;;;;31.73;5.85;;;;;;;;;;5070838;28;20107;-69
2022/01/30 09:10:35;;;;;;;26.38;5.07;;;;;;;;;;5062243;28;20506;-70
2022/01/30 09:13:02;;;;;;;26.60;4.63;;;;;;;;;;5058421;28;20541;-70
2022/01/30 09:15:29;;;;;;;32.22;6.78;;;;;;;;;;5072415;28;20053;-70
2022/01/30 09:17:58;;;;;;;31.27;5.05;;;;;;;;;;5066759;28;20202;-70
2022/01/30 09:20:25;;;;;;;23.83;4.38;;;;;;;;;;5067797;28;20084;-69
2022/01/30 09:22:51;;;;;;;29.30;4.35;;;;;;;;;;5082313;28;20053;-70
2022/01/30 09:25:18;;;;;;;32.50;4.18;;;;;;;;;;5069189;28;20095;-70
2022/01/30 09:27:45;;;;;;;26.38;4.72;;;;;;;;;;5072678;28;20053;-70
2022/01/30 09:30:11;;;;;;;30.10;5.22;;;;;;;;;;5071666;28;20148;-71
2022/01/30 09:32:38;;;;;;;33.42;5.65;;;;;;;;;;5072694;28;20081;-71
2022/01/30 09:35:05;;;;;;;22.77;4.70;;;;;;;;;;5072346;28;20200;-71
2022/01/30 09:37:32;;;;;;;28.70;5.05;;;;;;;;;;5072521;28;20099;-70
2022/01/30 09:39:58;;;;;;;25.05;4.40;;;;;;;;;;5072545;28;20060;-70
2022/01/30 09:42:25;;;;;;;32.45;6.05;;;;;;;;;;5072653;28;20534;-70
2022/01/30 09:44:51;;;;;;;34.28;5.63;;;;;;;;;;5072379;28;20279;-71
2022/01/30 09:47:17;;;;;;;35.28;5.28;;;;;;;;;;5071475;28;20056;-70
2022/01/30 09:49:46;;;;;;;31.52;6.15;;;;;;;;;;5071373;28;20486;-70
2022/01/30 09:52:13;;;;;;;32.95;6.10;;;;;;;;;;5070746;28;20148;-71
2022/01/30 09:54:39;;;;;;;22.33;3.85;;;;;;;;;;5071493;28;20087;-71
2022/01/30 09:57:05;;;;;;;24.42;5.22;;;;;;;;;;5068372;28;20506;-69
2022/01/30 09:59:32;;;;;;;29.95;5.80;;;;;;;;;;5074207;28;20477;-70
2022/01/30 10:02:02;;;;;;;29.27;4.45;;;;;;;;;;5073413;28;20056;-71
2022/01/30 10:04:29;;;;;;;27.40;4.55;;;;;;;;;;5075855;28;20053;-70
2022/01/30 10:06:59;;;;;;;31.90;5.60;;;;;;;;;;5076092;28;20135;-71
2022/01/30 10:09:31;;;;;;;24.38;4.22;;;;;;;;;;5075761;28;20139;-72
2022/01/30 10:12:18;;;;;;;24.70;5.22;;;;;;;;;;5075841;28;20059;-69
2022/01/30 10:14:48;;;;;;;28.98;5.38;;;;;;;;;;5075625;28;20132;-71
2022/01/30 10:17:24;;;;;;;32.17;4.85;;;;;;;;;;5074351;28;20092;-70
2022/01/30 10:20:00;;;;;;;21.08;4.38;;;;;;;;;;5074915;28;20052;-70
2022/01/30 10:22:26;;;;;;;35.15;5.47;;;;;;;;;;5071973;28;20498;-70
2022/01/30 10:24:53;;;;;;;33.58;5.70;;;;;;;;;;5074423;28;20552;-70
2022/01/30 10:27:20;;;;;;;25.83;4.50;;;;;;;;;;5074509;28;20134;-70
2022/01/30 10:29:56;;;;;;;26.60;4.82;;;;;;;;;;5073910;28;20049;-70
2022/01/30 10:32:23;;;;;;;31.45;5.25;;;;;;;;;;5055561;28;20546;-70
2022/01/30 10:34:57;;;;;;;33.95;5.45;;;;;;;;;;5071026;28;20080;-70
2022/01/30 10:37:24;;;;;;;26.58;4.65;;;;;;;;;;5075442;28;20110;-70
2022/01/30 10:39:54;;;;;;;27.80;4.82;;;;;;;;;;5075411;28;20060;-70
2022/01/30 10:42:40;;;;;;;27.90;5.30;;;;;;;;;;5075563;28;20079;-69
2022/01/30 10:45:08;;;;;;;29.52;4.82;;;;;;;;;;5075172;28;20053;-70
2022/01/30 10:47:36;;;;;;;27.83;5.20;;;;;;;;;;5074968;28;20057;-69
2022/01/30 10:50:07;;;;;;;30.17;5.50;;;;;;;;;;5075298;28;20049;-69
2022/01/30 10:52:33;;;;;;;30.77;5.30;;;;;;;;;;5074873;28;20053;-69
2022/01/30 10:55:02;;;;;;;27.88;3.83;;;;;;;;;;5074689;28;20049;-70
2022/01/30 10:57:29;;;;;;;30.23;5.47;;;;;;;;;;5072919;28;20579;-70
2022/01/30 10:59:56;;;;;;;25.25;4.30;;;;;;;;;;5074749;28;20055;-71
2022/01/30 11:02:23;;;;;;;26.63;5.43;;;;;;;;;;5075147;28;20056;-70
2022/01/30 11:05:00;;;;;;;31.27;5.13;;;;;;;;;;5074976;28;20054;-70
2022/01/30 11:07:29;;;;;;;29.08;4.47;;;;;;;;;;5075079;28;20111;-70
2022/01/30 11:09:59;;;;;;;30.15;4.75;;;;;;;;;;5074346;28;20053;-70
2022/01/30 11:12:34;;;;;;;33.63;6.38;;;;;;;;;;5074691;28;20139;-70
2022/01/30 11:17:45;;;;;;;29.65;5.85;;;;;;;;;;5074670;28;20052;-70
2022/01/30 11:20:12;;;;;;;24.13;4.15;;;;;;;;;;5074391;28;20052;-71
2022/01/30 11:22:38;;;;;;;32.10;5.72;;;;;;;;;;5072961;28;20129;-70
2022/01/30 11:25:07;;;;;;;33.75;5.20;;;;;;;;;;5074896;28;20132;-70
2022/01/30 11:27:33;;;;;;;39.10;6.13;;;;;;;;;;5077089;28;20147;-70
2022/01/30 11:30:01;;;;;;;34.90;5.05;;;;;;;;;;5081191;28;20077;-70
2022/01/30 11:32:28;;;;;;;25.42;5.57;;;;;;;;;;5073566;28;20501;-70
2022/01/30 11:34:55;;;;;;;34.80;5.43;;;;;;;;;;5074121;28;20064;-69
2022/01/30 11:37:24;;;;;;;43.05;5.70;;;;;;;;;;5075288;28;20118;-70
2022/01/30 11:39:53;;;;;;;35.50;5.38;;;;;;;;;;5073916;28;20430;-70
2022/01/30 11:42:25;;;;;;;30.98;5.05;;;;;;;;;;5074555;28;20041;-69
2022/01/30 11:44:58;;;;;;;32.35;5.25;;;;;;;;;;5074196;28;20509;-68
2022/01/30 11:48:03;;;;;;;33.03;6.40;;;;;;;;;;5070578;28;20147;-70
2022/01/30 11:50:34;;;;;;;21.35;5.30;;;;;;;;;;5071478;28;20516;-70
2022/01/30 11:53:00;;;;;;;23.83;5.63;;;;;;;;;;5072527;28;20136;-71
2022/01/30 11:55:40;;;;;;;37.92;5.28;;;;;;;;;;5068209;28;20055;-72
2022/01/30 11:58:28;;;;;;;32.60;6.57;;;;;;;;;;5067906;28;20060;-71
2022/01/30 12:00:54;;;;;;;31.00;4.82;;;;;;;;;;5072938;28;20144;-70
2022/01/30 12:03:25;;;;;;;25.30;4.70;;;;;;;;;;5073452;28;20072;-70
2022/01/30 12:05:51;;;;;;;24.45;5.30;;;;;;;;;;5069649;28;20053;-70
2022/01/30 12:08:37;;;;;;;29.88;5.85;;;;;;;;;;5072033;28;20053;-71
2022/01/30 12:11:03;;;;;;;24.70;4.47;;;;;;;;;;5071770;28;20133;-68
2022/01/30 12:13:43;;;;;;;25.05;4.88;;;;;;;;;;5068418;28;20060;-70
2022/01/30 12:16:32;;;;;;;24.67;5.00;;;;;;;;;;5067823;28;20604;-69
2022/01/30 12:18:59;;;;;;;24.83;4.07;;;;;;;;;;5057290;28;20161;-69
2022/01/30 12:21:28;;;;;;;29.85;4.65;;;;;;;;;;5065263;28;20063;-68
2022/01/30 12:23:55;;;;;;;27.55;5.25;;;;;;;;;;5071063;28;20053;-68
2022/01/30 12:26:21;;;;;;;25.60;5.82;;;;;;;;;;5072999;28;20137;-68
2022/01/30 12:28:49;;;;;;;28.65;6.03;;;;;;;;;;5073689;28;20085;-69
2022/01/30 12:31:35;;;;;;;33.38;5.30;;;;;;;;;;5071642;28;20053;-68
2022/01/30 12:34:08;;;;;;;22.58;3.92;;;;;;;;;;5068081;28;20057;-68
2022/01/30 12:36:55;;;;;;;29.98;4.70;;;;;;;;;;5071720;28;20079;-69
2022/01/30 12:39:23;;;;;;;27.73;6.47;;;;;;;;;;5072911;28;20103;-69
2022/01/30 12:41:50;;;;;;;31.13;5.50;;;;;;;;;;5072714;28;20064;-70
2022/01/30 12:44:20;;;;;;;32.58;5.07;;;;;;;;;;5072484;28;20057;-69
2022/01/30 12:46:48;;;;;;;34.20;7.88;;;;;;;;;;5071424;28;20088;-69
2022/01/30 12:49:19;;;;;;;26.92;7.35;;;;;;;;;;5068242;28;20570;-69
2022/01/30 12:51:49;;;;;;;27.75;5.07;;;;;;;;;;5072498;28;20585;-68
2022/01/30 12:54:20;;;;;;;27.55;4.13;;;;;;;;;;5072220;28;20092;-70
2022/01/30 12:56:48;;;;;;;19.92;4.32;;;;;;;;;;5072651;28;20060;-70
2022/01/30 12:59:15;;;;;;;29.42;5.70;;;;;;;;;;5060280;28;20057;-69
2022/01/30 13:01:43;;;;;;;26.08;4.53;;;;;;;;;;5077881;28;20059;-70
2022/01/30 13:04:11;;;;;;;29.42;5.72;;;;;;;;;;5072461;28;20052;-72
2022/01/30 13:06:38;;;;;;;25.13;5.80;;;;;;;;;;5071998;28;20087;-72
2022/01/30 13:09:05;;;;;;;28.48;5.22;;;;;;;;;;5072245;28;20080;-69
2022/01/30 13:11:32;;;;;;;33.00;4.97;;;;;;;;;;5071199;28;20053;-69
2022/01/30 13:14:00;;;;;;;29.33;4.97;;;;;;;;;;5072239;28;20461;-70
2022/01/30 13:16:28;;;;;;;27.50;5.57;;;;;;;;;;5072530;28;20056;-71
2022/01/30 13:18:55;;;;;;;33.20;5.57;;;;;;;;;;5072405;28;20123;-71
2022/01/30 13:21:24;;;;;;;30.70;4.93;;;;;;;;;;5071660;28;20068;-70
2022/01/30 13:23:51;;;;;;;32.28;5.18;;;;;;;;;;5070947;28;20102;-69
2022/01/30 13:26:31;;;;;;;23.42;4.60;;;;;;;;;;5072053;28;20053;-70
2022/01/30 13:28:57;;;;;;;23.95;4.43;;;;;;;;;;5071961;28;20055;-70
2022/01/30 13:31:24;;;;;;;33.33;6.25;;;;;;;;;;5072417;28;20476;-70
2022/01/30 13:34:10;;;;;;;27.90;6.25;;;;;;;;;;5073855;28;20045;-70
2022/01/30 13:36:37;;;;;;;29.05;5.55;;;;;;;;;;5075751;28;20048;-70
2022/01/30 13:39:08;;;;;;;34.40;6.97;;;;;;;;;;5074318;28;20049;-70
2022/01/30 13:41:48;;;;;;;25.45;4.35;;;;;;;;;;5075718;28;20076;-69
2022/01/30 13:44:24;;;;;;;25.83;5.03;;;;;;;;;;5075142;28;20083;-70
2022/01/30 13:47:03;;;;;;;24.70;5.38;;;;;;;;;;5074243;28;20557;-69
2022/01/30 13:49:30;;;;;;;27.02;5.20;;;;;;;;;;5075706;28;20053;-69
2022/01/30 13:52:03;;;;;;;28.10;4.78;;;;;;;;;;5076045;28;20148;-73
2022/01/30 13:54:29;;;;;;;27.42;5.10;;;;;;;;;;5075723;28;20119;-70
2022/01/30 13:57:00;;;;;;;24.00;5.10;;;;;;;;;;5074323;28;20088;-71
2022/01/30 13:59:27;;;;;;;20.90;4.18;;;;;;;;;;5075361;28;20139;-70
2022/01/30 14:01:57;;;;;;;18.67;4.95;;;;;;;;;;5074518;28;20060;-69
2022/01/30 14:04:24;;;;;;;21.15;4.43;;;;;;;;;;5075661;28;20057;-69
2022/01/30 14:06:52;;;;;;;25.75;5.60;;;;;;;;;;5075501;28;20053;-70
2022/01/30 14:09:25;;;;;;;26.45;4.38;;;;;;;;;;5075181;28;20049;-69
2022/01/30 14:12:06;;;;;;;26.13;4.50;;;;;;;;;;5075409;28;20506;-68
2022/01/30 14:14:36;;;;;;;25.33;4.68;;;;;;;;;;5074360;28;20049;-66
2022/01/30 14:17:04;;;;;;;31.95;5.65;;;;;;;;;;5074597;28;20136;-66
2022/01/30 14:19:41;;;;;;;26.58;6.15;;;;;;;;;;5075032;28;20147;-69
2022/01/30 14:22:32;;;;;;;24.20;4.68;;;;;;;;;;5070095;28;20068;-68
2022/01/30 14:25:01;;;;;;;34.50;5.80;;;;;;;;;;5075138;28;20045;-68
2022/01/30 14:27:27;;;;;;;22.60;5.35;;;;;;;;;;5074785;28;20057;-67
2022/01/30 14:29:55;;;;;;;30.20;6.10;;;;;;;;;;5074551;28;20049;-67
2022/01/30 14:32:22;;;;;;;29.65;5.53;;;;;;;;;;5074563;28;20053;-67
2022/01/30 14:34:49;;;;;;;29.13;5.95;;;;;;;;;;5075526;28;20080;-67
2022/01/30 14:37:17;;;;;;;29.42;4.97;;;;;;;;;;5066869;28;20090;-67
2022/01/30 14:39:43;;;;;;;31.23;4.95;;;;;;;;;;5074403;28;20051;-68
2022/01/30 14:42:12;;;;;;;27.05;5.10;;;;;;;;;;5074422;28;20057;-67
2022/01/30 14:44:39;;;;;;;28.02;5.88;;;;;;;;;;5073562;28;20514;-69
2022/01/30 14:47:06;;;;;;;32.75;5.35;;;;;;;;;;5073510;28;20056;-69
2022/01/30 14:49:32;;;;;;;30.48;5.63;;;;;;;;;;5074482;28;20068;-70
2022/01/30 14:51:59;;;;;;;32.90;4.95;;;;;;;;;;5074485;28;20407;-71
2022/01/30 14:54:25;;;;;;;29.92;4.82;;;;;;;;;;5069163;28;20057;-71
2022/01/30 14:56:51;;;;;;;32.45;5.82;;;;;;;;;;5073544;28;20061;-70
2022/01/30 14:59:18;;;;;;;28.13;4.78;;;;;;;;;;5074337;28;20367;-70
2022/01/30 15:01:44;;;;;;;30.63;5.18;;;;;;;;;;5073995;28;20560;-69
2022/01/30 15:04:11;;;;;;;34.90;5.32;;;;;;;;;;5072547;28;20056;-69
2022/01/30 15:06:37;;;;;;;37.15;6.70;;;;;;;;;;5072256;28;20045;-70
2022/01/30 15:09:04;;;;;;;39.83;7.00;;;;;;;;;;5072752;28;20136;-70
2022/01/30 15:11:30;;;;;;;33.17;6.40;;;;;;;;;;5063260;28;20494;-69
2022/01/30 15:13:57;;;;;;;28.77;6.00;;;;;;;;;;5074594;28;20053;-69
2022/01/30 15:16:38;;;;;;;39.50;6.53;;;;;;;;;;5082143;28;20079;-69
2022/01/30 15:19:06;;;;;;;27.98;5.43;;;;;;;;;;5074649;28;20060;-68
2022/01/30 15:21:33;;;;;;;31.88;5.65;;;;;;;;;;5073618;28;20104;-69
2022/01/30 15:23:59;;;;;;;33.40;5.88;;;;;;;;;;5073604;28;20156;-69
2022/01/30 15:26:25;;;;;;;24.65;5.55;;;;;;;;;;5074526;28;20052;-69
2022/01/30 15:28:52;;;;;;;38.33;7.65;;;;;;;;;;5074100;28;20092;-69
2022/01/30 15:31:18;;;;;;;27.33;5.00;;;;;;;;;;5074243;28;20515;-70
2022/01/30 15:33:44;;;;;;;26.02;5.50;;;;;;;;;;5073582;28;20053;-69
2022/01/30 15:36:11;;;;;;;34.72;5.32;;;;;;;;;;5074068;28;20482;-69